createdAt,value
2023-03-27T00:01:27.836Z,0.70
2023-03-27T00:04:36.320Z,0.60
2023-03-27T00:07:41.856Z,0.60
2023-03-27T00:10:53.062Z,0.70
2023-03-27T00:17:06.752Z,0.68
2023-03-27T00:20:12.770Z,0.75
2023-03-27T00:23:20.790Z,0.50
2023-03-27T00:26:30.815Z,0.70
2023-03-27T00:29:37.116Z,0.60
2023-03-27T00:32:45.429Z,0.63
2023-03-27T00:35:52.060Z,0.90
2023-03-27T00:38:57.664Z,0.90
2023-03-27T00:42:10.814Z,0.95
2023-03-27T00:45:19.243Z,0.70
2023-03-27T00:48:27.699Z,0.93
2023-03-27T00:51:35.784Z,1.20
2023-03-27T00:54:43.967Z,1.00
2023-03-27T00:57:54.699Z,1.30
2023-03-27T01:01:04.549Z,0.90
2023-03-27T01:04:12.623Z,0.90
2023-03-27T01:07:18.813Z,0.60
2023-03-27T01:10:24.648Z,0.90
2023-03-27T01:13:40.775Z,0.60
2023-03-27T01:16:51.033Z,0.60
2023-03-27T01:20:21.227Z,0.85
2023-03-27T01:23:59.103Z,0.73
2023-03-27T01:27:08.880Z,0.70
2023-03-27T01:30:22.094Z,0.40
2023-03-27T01:33:41.340Z,0.77
2023-03-27T01:36:57.038Z,0.70
2023-03-27T01:40:13.306Z,0.70
2023-03-27T01:43:25.339Z,0.50
2023-03-27T01:46:36.739Z,0.73
2023-03-27T01:49:45.057Z,0.55
2023-03-27T01:52:54.340Z,0.90
2023-03-27T01:56:05.515Z,0.70
2023-03-27T01:59:14.252Z,0.70
2023-03-27T02:02:23.106Z,0.50
2023-03-27T02:05:32.248Z,0.50
2023-03-27T02:08:41.862Z,0.70
2023-03-27T02:11:54.882Z,0.45
2023-03-27T02:15:23.612Z,0.95
2023-03-27T02:18:33.243Z,0.60
2023-03-27T02:21:38.705Z,0.55
2023-03-27T02:24:45.113Z,0.40
2023-03-27T02:27:55.044Z,0.80
2023-03-27T02:31:34.062Z,0.70
2023-03-27T02:34:57.448Z,0.47
2023-03-27T02:38:09.585Z,0.70
2023-03-27T02:41:22.170Z,0.50
2023-03-27T02:44:34.075Z,1.02
2023-03-27T02:47:43.622Z,0.50
2023-03-27T02:50:51.484Z,0.60
2023-03-27T02:53:58.586Z,0.47
2023-03-27T02:57:07.174Z,0.60
2023-03-27T03:00:19.278Z,0.50
2023-03-27T03:03:29.107Z,0.80
2023-03-27T03:06:34.773Z,0.50
2023-03-27T03:09:41.221Z,0.75
2023-03-27T03:12:47.003Z,0.60
2023-03-27T03:15:55.851Z,0.65
2023-03-27T03:19:02.679Z,0.50
2023-03-27T03:22:08.606Z,0.60
2023-03-27T03:25:18.177Z,0.75
2023-03-27T03:28:26.269Z,0.75
2023-03-27T03:31:46.229Z,1.17
2023-03-27T03:34:58.464Z,0.60
2023-03-27T03:38:04.280Z,0.52
2023-03-27T03:41:10.529Z,0.47
2023-03-27T03:44:18.551Z,0.60
2023-03-27T03:47:27.440Z,0.70
2023-03-27T03:50:33.664Z,0.70
2023-03-27T03:53:40.161Z,0.88
2023-03-27T03:56:50.076Z,0.57
2023-03-27T03:59:59.342Z,0.57
2023-03-27T04:03:09.187Z,0.57
2023-03-27T04:06:20.545Z,0.40
2023-03-27T04:09:26.629Z,0.73
2023-03-27T04:12:32.670Z,0.60
2023-03-27T04:15:39.571Z,0.60
2023-03-27T04:18:50.831Z,0.65
2023-03-27T04:25:06.748Z,0.50
2023-03-27T04:28:17.060Z,0.40
2023-03-27T04:31:23.334Z,0.88
2023-03-27T04:34:31.875Z,0.70
2023-03-27T04:37:38.087Z,0.40
2023-03-27T04:40:47.595Z,1.05
2023-03-27T04:43:54.402Z,0.57
2023-03-27T04:47:03.342Z,0.90
2023-03-27T04:50:17.199Z,0.50
2023-03-27T04:53:30.621Z,0.50
2023-03-27T04:56:38.156Z,0.52
2023-03-27T04:59:45.145Z,0.85
2023-03-27T05:02:56.672Z,0.52
2023-03-27T05:06:05.664Z,0.55
2023-03-27T05:09:13.050Z,0.40
2023-03-27T05:12:18.805Z,0.40
2023-03-27T05:15:28.332Z,0.45
2023-03-27T05:18:35.591Z,0.40
2023-03-27T05:21:48.174Z,0.40
2023-03-27T05:25:01.523Z,0.50
2023-03-27T05:28:14.675Z,0.77
2023-03-27T05:31:23.101Z,0.57
2023-03-27T05:34:29.046Z,0.50
2023-03-27T05:37:37.279Z,0.47
2023-03-27T05:40:44.663Z,0.47
2023-03-27T05:43:52.411Z,0.40
2023-03-27T05:47:02.569Z,0.40
2023-03-27T05:50:08.394Z,0.60
2023-03-27T05:53:17.416Z,0.40
2023-03-27T05:56:23.050Z,0.50
2023-03-27T05:59:31.626Z,0.45
2023-03-27T06:02:37.250Z,0.50
2023-03-27T06:05:44.366Z,0.65
2023-03-27T06:08:56.316Z,0.65
2023-03-27T06:12:04.442Z,0.47
2023-03-27T06:15:13.641Z,0.47
2023-03-27T06:18:19.923Z,0.68
2023-03-27T06:21:25.766Z,0.60
2023-03-27T06:24:36.031Z,0.80
2023-03-27T06:27:46.421Z,0.50
2023-03-27T06:30:53.973Z,0.65
2023-03-27T06:34:08.895Z,0.43
2023-03-27T06:37:14.679Z,0.60
2023-03-27T06:40:24.721Z,0.50
2023-03-27T06:43:30.542Z,0.52
2023-03-27T06:46:45.218Z,0.50
2023-03-27T06:49:52.332Z,0.75
2023-03-27T06:53:10.016Z,1.02
2023-03-27T06:56:25.158Z,0.70
2023-03-27T06:59:34.540Z,0.60
2023-03-27T07:02:43.444Z,0.50
2023-03-27T07:05:49.968Z,0.35
2023-03-27T07:08:57.175Z,0.57
2023-03-27T07:12:08.111Z,0.50
2023-03-27T07:15:17.241Z,0.40
2023-03-27T07:18:25.871Z,0.93
2023-03-27T07:21:32.057Z,0.40
2023-03-27T07:24:38.056Z,0.50
2023-03-27T07:27:48.226Z,0.60
2023-03-27T07:30:54.405Z,0.47
2023-03-27T07:34:01.312Z,0.77
2023-03-27T07:37:07.874Z,0.52
2023-03-27T07:40:16.554Z,0.82
2023-03-27T07:43:29.004Z,0.60
2023-03-27T07:46:37.561Z,0.40
2023-03-27T07:49:44.809Z,0.80
2023-03-27T07:52:51.521Z,0.52
2023-03-27T07:55:59.768Z,0.60
2023-03-27T07:59:12.005Z,0.60
2023-03-27T08:02:21.262Z,0.60
2023-03-27T08:05:31.356Z,0.40
2023-03-27T08:08:37.253Z,0.40
2023-03-27T08:11:46.472Z,0.60
2023-03-27T08:14:57.211Z,0.60
2023-03-27T08:18:03.567Z,0.63
2023-03-27T08:21:09.670Z,0.43
2023-03-27T08:24:15.762Z,0.70
2023-03-27T08:27:25.214Z,0.93
2023-03-27T08:30:33.989Z,0.40
2023-03-27T08:33:39.895Z,0.60
2023-03-27T08:36:47.275Z,0.75
2023-03-27T08:39:55.681Z,0.90
2023-03-27T08:43:03.894Z,0.35
2023-03-27T08:46:18.968Z,0.85
2023-03-27T08:49:26.199Z,0.70
2023-03-27T08:52:34.437Z,0.55
2023-03-27T08:55:44.209Z,0.55
2023-03-27T08:58:51.782Z,0.50
2023-03-27T09:02:05.287Z,0.70
2023-03-27T09:05:16.932Z,0.70
2023-03-27T09:08:30.159Z,0.50
2023-03-27T09:11:43.501Z,0.40
2023-03-27T09:14:49.978Z,0.50
2023-03-27T09:18:06.394Z,0.45
2023-03-27T09:21:18.122Z,0.63
2023-03-27T09:24:29.795Z,0.57
2023-03-27T09:27:38.020Z,0.50
2023-03-27T09:30:43.696Z,0.55
2023-03-27T09:33:52.739Z,0.68
2023-03-27T09:36:59.510Z,0.60
2023-03-27T09:40:13.227Z,0.63
2023-03-27T09:43:23.809Z,0.60
2023-03-27T09:46:32.039Z,0.52
2023-03-27T09:49:45.104Z,0.75
2023-03-27T09:52:52.622Z,0.73
2023-03-27T09:56:01.113Z,0.50
2023-03-27T09:59:16.099Z,0.95
2023-03-27T10:02:22.828Z,0.50
2023-03-27T10:05:32.892Z,0.60
2023-03-27T10:08:41.223Z,0.60
2023-03-27T10:11:48.089Z,0.60
2023-03-27T10:14:54.849Z,0.50
2023-03-27T10:18:03.008Z,0.60
2023-03-27T10:21:16.084Z,0.60
2023-03-27T10:24:23.676Z,0.68
2023-03-27T10:27:31.919Z,0.70
2023-03-27T10:30:38.303Z,0.60
2023-03-27T10:33:46.113Z,0.50
2023-03-27T10:36:57.978Z,0.50
2023-03-27T10:40:09.817Z,0.63
2023-03-27T10:43:19.969Z,0.50
2023-03-27T10:46:26.270Z,0.60
2023-03-27T10:49:35.988Z,0.75
2023-03-27T10:52:49.998Z,0.55
2023-03-27T10:56:00.988Z,0.60
2023-03-27T10:59:11.686Z,0.50
2023-03-27T11:02:20.947Z,0.70
2023-03-27T11:05:28.029Z,0.60
2023-03-27T11:08:47.755Z,0.60
2023-03-27T11:11:54.689Z,0.70
2023-03-27T11:15:09.729Z,0.60
2023-03-27T11:18:19.110Z,0.40
2023-03-27T11:21:27.375Z,0.50
2023-03-27T11:24:40.019Z,0.50
2023-03-27T11:27:48.556Z,0.65
2023-03-27T11:31:11.812Z,0.60
2023-03-27T11:34:29.025Z,0.77
2023-03-27T11:37:40.073Z,1.00
2023-03-27T11:40:51.797Z,0.65
2023-03-27T11:43:57.979Z,0.57
2023-03-27T11:47:30.480Z,0.55
2023-03-27T11:50:41.246Z,0.70
2023-03-27T11:53:51.814Z,0.60
2023-03-27T11:57:01.805Z,0.50
2023-03-27T12:00:16.642Z,0.50
2023-03-27T12:03:38.514Z,0.63
2023-03-27T12:06:49.966Z,0.60
2023-03-27T12:10:03.775Z,0.55
2023-03-27T12:13:28.822Z,0.70
2023-03-27T12:16:52.381Z,0.60
2023-03-27T12:20:14.342Z,0.60
2023-03-27T12:23:30.644Z,0.70
2023-03-27T12:27:02.757Z,0.80
2023-03-27T12:30:17.872Z,0.75
2023-03-27T12:33:33.837Z,0.60
2023-03-27T12:36:41.967Z,0.70
2023-03-27T12:39:48.797Z,0.70
2023-03-27T12:42:56.540Z,0.77
2023-03-27T12:46:21.267Z,0.70
2023-03-27T12:49:56.478Z,0.60
2023-03-27T12:53:06.182Z,0.90
2023-03-27T12:56:27.226Z,0.65
2023-03-27T12:59:35.864Z,0.68
2023-03-27T13:03:12.056Z,0.82
2023-03-27T13:06:36.459Z,1.13
2023-03-27T13:09:59.080Z,0.80
2023-03-27T13:13:23.385Z,1.00
2023-03-27T13:16:46.808Z,0.60
2023-03-27T13:20:08.401Z,1.00
2023-03-27T13:23:23.179Z,0.75
2023-03-27T13:26:39.337Z,0.70
2023-03-27T13:29:44.959Z,0.77
2023-03-27T13:33:11.430Z,0.77
2023-03-27T13:36:21.054Z,0.80
2023-03-27T13:39:28.476Z,1.30
2023-03-27T13:42:34.924Z,0.80
2023-03-27T13:45:47.350Z,1.00
2023-03-27T13:49:23.776Z,0.70
2023-03-27T13:52:49.511Z,0.77
2023-03-27T13:56:12.327Z,0.60
2023-03-27T13:59:41.538Z,0.90
2023-03-27T14:03:11.390Z,0.80
2023-03-27T14:06:35.810Z,0.88
2023-03-27T14:09:51.194Z,0.70
2023-03-27T14:13:03.663Z,0.75
2023-03-27T14:16:24.155Z,0.93
2023-03-27T14:19:40.322Z,0.88
2023-03-27T14:22:53.922Z,0.90
2023-03-27T14:26:02.114Z,0.85
2023-03-27T14:29:10.518Z,0.80
2023-03-27T14:32:21.056Z,1.05
2023-03-27T14:35:37.163Z,1.35
2023-03-27T14:38:43.928Z,1.00
2023-03-27T14:41:49.715Z,0.70
2023-03-27T14:44:56.775Z,1.13
2023-03-27T14:48:07.912Z,0.80
2023-03-27T14:51:16.384Z,1.00
2023-03-27T14:54:27.368Z,1.00
2023-03-27T14:57:33.693Z,0.80
2023-03-27T15:00:43.043Z,0.90
2023-03-27T15:03:54.618Z,1.08
2023-03-27T15:07:14.756Z,0.93
2023-03-27T15:10:24.627Z,0.88
2023-03-27T15:13:36.944Z,1.00
2023-03-27T15:16:43.082Z,0.90
2023-03-27T15:19:55.140Z,0.60
2023-03-27T15:23:03.204Z,1.50
2023-03-27T15:26:10.876Z,1.10
2023-03-27T15:29:19.779Z,0.80
2023-03-27T15:32:34.679Z,1.35
2023-03-27T15:35:49.218Z,0.70
2023-03-27T15:38:57.609Z,0.80
2023-03-27T15:42:16.976Z,0.95
2023-03-27T15:45:24.233Z,1.10
2023-03-27T15:48:39.934Z,0.93
2023-03-27T15:51:49.940Z,1.08
2023-03-27T15:54:56.681Z,1.00
2023-03-27T15:58:04.289Z,1.08
2023-03-27T16:01:18.444Z,0.90
2023-03-27T16:04:28.178Z,0.80
2023-03-27T16:07:47.932Z,1.08
2023-03-27T16:10:57.229Z,1.13
2023-03-27T16:14:03.274Z,0.73
2023-03-27T16:17:20.124Z,0.70
2023-03-27T16:20:37.566Z,0.70
2023-03-27T16:23:52.256Z,0.73
2023-03-27T16:26:59.387Z,0.80
2023-03-27T16:30:05.173Z,0.70
2023-03-27T16:33:16.022Z,0.80
2023-03-27T16:36:27.971Z,0.73
2023-03-27T16:39:46.172Z,0.82
2023-03-27T16:42:52.043Z,0.90
2023-03-27T16:45:59.034Z,0.95
2023-03-27T16:49:07.249Z,0.90
2023-03-27T16:52:27.722Z,0.88
2023-03-27T16:55:37.609Z,0.80
2023-03-27T16:58:43.835Z,0.93
2023-03-27T17:01:50.528Z,0.80
2023-03-27T17:04:56.906Z,0.90
2023-03-27T17:08:02.791Z,0.80
2023-03-27T17:11:16.005Z,0.90
2023-03-27T17:14:21.186Z,1.63
2023-03-27T17:17:30.804Z,1.27
2023-03-27T17:20:44.149Z,1.00
2023-03-27T17:23:53.996Z,1.17
2023-03-27T17:27:04.422Z,1.20
2023-03-27T17:30:16.046Z,1.40
2023-03-27T17:33:29.601Z,1.00
2023-03-27T17:36:44.913Z,1.40
2023-03-27T17:39:55.843Z,1.10
2023-03-27T17:43:06.500Z,1.42
2023-03-27T17:46:14.135Z,1.50
2023-03-27T17:49:22.117Z,1.48
2023-03-27T17:52:28.166Z,1.17
2023-03-27T17:55:37.060Z,1.10
2023-03-27T17:58:50.334Z,1.33
2023-03-27T18:01:59.822Z,1.50
2023-03-27T18:05:07.724Z,1.17
2023-03-27T18:08:29.188Z,2.00
2023-03-27T18:11:37.691Z,1.65
2023-03-27T18:14:49.167Z,1.63
2023-03-27T18:17:56.581Z,1.63
2023-03-27T18:21:07.760Z,1.75
2023-03-27T18:24:13.531Z,1.63
2023-03-27T18:27:20.090Z,1.90
2023-03-27T18:30:30.392Z,1.65
2023-03-27T18:33:44.080Z,1.48
2023-03-27T18:36:53.090Z,2.03
2023-03-27T18:40:00.563Z,1.65
2023-03-27T18:43:07.341Z,2.20
2023-03-27T18:46:19.837Z,2.80
2023-03-27T18:49:26.489Z,3.42
2023-03-27T18:52:32.744Z,3.97
2023-03-27T18:55:39.947Z,3.13
2023-03-27T18:58:47.638Z,2.35
2023-03-27T19:01:57.842Z,2.22
2023-03-27T19:05:10.427Z,1.30
2023-03-27T19:08:18.836Z,0.73
2023-03-27T19:11:29.830Z,0.82
2023-03-27T19:14:35.452Z,0.80
2023-03-27T19:17:44.646Z,0.70
2023-03-27T19:20:53.025Z,0.70
2023-03-27T19:24:04.427Z,1.00
2023-03-27T19:27:24.151Z,1.00
2023-03-27T19:30:35.033Z,1.48
2023-03-27T19:33:47.827Z,1.20
2023-03-27T19:40:07.278Z,1.40
2023-03-27T19:43:17.999Z,1.27
2023-03-27T19:46:24.771Z,1.33
2023-03-27T19:49:34.087Z,1.00
2023-03-27T19:52:42.702Z,1.40
2023-03-27T19:55:51.383Z,1.50
2023-03-27T19:58:58.835Z,1.90
2023-03-27T20:02:10.734Z,1.67
2023-03-27T20:05:20.277Z,1.70
2023-03-27T20:08:31.242Z,1.75
2023-03-27T20:11:42.838Z,2.00
2023-03-27T20:15:02.004Z,1.17
2023-03-27T20:18:14.313Z,1.85
2023-03-27T20:21:24.953Z,1.48
2023-03-27T20:24:30.253Z,1.60
2023-03-27T20:27:36.410Z,1.27
2023-03-27T20:30:44.492Z,1.48
2023-03-27T20:33:53.443Z,1.50
2023-03-27T20:37:04.204Z,1.90
2023-03-27T20:40:12.330Z,2.20
2023-03-27T20:43:17.507Z,1.60
2023-03-27T20:46:23.393Z,2.13
2023-03-27T20:52:41.411Z,1.95
2023-03-27T20:55:59.045Z,1.52
2023-03-27T20:59:06.346Z,1.63
2023-03-27T21:02:15.169Z,1.23
2023-03-27T21:05:22.124Z,1.90
2023-03-27T21:08:38.106Z,1.70
2023-03-27T21:11:44.178Z,1.42
2023-03-27T21:14:49.704Z,1.45
2023-03-27T21:17:56.078Z,1.63
2023-03-27T21:21:01.483Z,2.17
2023-03-27T21:24:11.095Z,2.00
2023-03-27T21:27:16.842Z,1.50
2023-03-27T21:30:24.456Z,1.45
2023-03-27T21:33:49.246Z,1.50
2023-03-27T21:36:58.781Z,1.30
2023-03-27T21:40:11.630Z,0.70
2023-03-27T21:43:17.587Z,0.30
2023-03-27T21:46:23.294Z,0.65
2023-03-27T21:49:32.871Z,0.50
2023-03-27T21:52:38.408Z,0.68
2023-03-27T21:55:52.156Z,0.60
2023-03-27T21:58:58.036Z,0.93
2023-03-27T22:02:03.804Z,0.93
2023-03-27T22:05:24.559Z,0.57
2023-03-27T22:08:31.165Z,0.40
2023-03-27T22:11:41.903Z,0.50
2023-03-27T22:14:47.901Z,0.95
2023-03-27T22:17:54.638Z,0.57
2023-03-27T22:21:01.226Z,0.70
2023-03-27T22:24:07.104Z,0.38
2023-03-27T22:27:16.112Z,0.50
2023-03-27T22:30:21.676Z,0.68
2023-03-27T22:33:32.292Z,0.60
2023-03-27T22:36:41.555Z,0.60
2023-03-27T22:39:52.201Z,0.80
2023-03-27T22:43:07.413Z,1.00
2023-03-27T22:46:14.026Z,0.70
2023-03-27T22:49:19.655Z,0.70
2023-03-27T22:52:29.105Z,0.77
2023-03-27T22:55:35.036Z,0.90
2023-03-27T22:58:44.060Z,0.90
2023-03-27T23:01:49.787Z,1.25
2023-03-27T23:04:57.219Z,1.08
2023-03-27T23:08:13.502Z,1.00
2023-03-27T23:11:22.372Z,1.17
2023-03-27T23:14:31.270Z,0.88
2023-03-27T23:17:40.595Z,1.23
2023-03-27T23:20:46.663Z,0.90
2023-03-27T23:23:53.600Z,0.98
2023-03-27T23:27:05.363Z,1.20
2023-03-27T23:30:14.797Z,1.00
2023-03-27T23:33:25.418Z,0.90
2023-03-27T23:36:34.568Z,1.00
2023-03-27T23:39:40.331Z,0.80
2023-03-27T23:42:49.303Z,1.10
2023-03-27T23:46:04.284Z,0.85
2023-03-27T23:49:14.728Z,1.13
2023-03-27T23:52:24.412Z,0.80
2023-03-27T23:55:35.903Z,0.80
2023-03-27T23:58:42.707Z,0.70
